createdAt,value
2018-12-17T00:04:21.189Z,0.49
2018-12-17T00:09:26.032Z,0.49
2018-12-17T00:14:29.042Z,0.47
2018-12-17T00:19:31.711Z,0.52
2018-12-17T00:24:34.595Z,0.56
2018-12-17T00:29:37.313Z,0.54
2018-12-17T00:34:40.292Z,0.52
2018-12-17T00:39:43.005Z,0.58
2018-12-17T00:44:45.777Z,0.63
2018-12-17T00:49:48.673Z,0.68
2018-12-17T00:54:51.455Z,0.69
2018-12-17T00:59:54.158Z,0.69
2018-12-17T01:04:56.953Z,0.71
2018-12-17T01:09:59.946Z,0.77
2018-12-17T01:15:04.172Z,0.82
2018-12-17T01:20:07.816Z,0.83
2018-12-17T01:25:10.766Z,0.83
2018-12-17T01:30:13.817Z,0.88
2018-12-17T01:35:16.632Z,0.93
2018-12-17T01:40:19.574Z,0.90
2018-12-17T01:45:22.597Z,0.89
2018-12-17T01:50:25.435Z,0.85
2018-12-17T01:55:28.213Z,0.81
2018-12-17T02:00:31.047Z,0.88
2018-12-17T02:05:33.901Z,0.90
2018-12-17T02:10:36.800Z,0.94
2018-12-17T02:15:40.373Z,0.93
2018-12-17T02:20:43.040Z,0.88
2018-12-17T02:25:45.962Z,0.89
2018-12-17T02:30:48.935Z,0.91
2018-12-17T02:35:51.669Z,0.87
2018-12-17T02:40:54.292Z,0.88
2018-12-17T02:45:57.131Z,0.95
2018-12-17T02:50:59.997Z,1.01
2018-12-17T02:56:03.070Z,1.04
2018-12-17T03:01:06.858Z,1.07
2018-12-17T03:06:11.032Z,1.09
2018-12-17T03:11:13.918Z,1.06
2018-12-17T03:16:16.616Z,1.09
2018-12-17T03:21:19.456Z,1.08
2018-12-17T03:26:22.591Z,1.07
2018-12-17T03:31:25.697Z,1.16
2018-12-17T03:36:28.664Z,1.18
2018-12-17T03:41:31.591Z,1.19
2018-12-17T03:46:34.640Z,1.15
2018-12-17T03:51:37.425Z,1.21
2018-12-17T03:56:40.566Z,1.25
2018-12-17T04:01:43.398Z,1.23
2018-12-17T04:06:46.285Z,1.21
2018-12-17T04:11:48.977Z,1.27
2018-12-17T04:16:51.764Z,1.28
2018-12-17T04:21:54.521Z,1.21
2018-12-17T04:26:58.213Z,1.12
2018-12-17T04:32:01.084Z,1.12
2018-12-17T04:37:04.322Z,1.16
2018-12-17T04:42:08.077Z,1.20
2018-12-17T04:47:10.973Z,1.25
2018-12-17T04:52:13.733Z,1.26
2018-12-17T04:57:16.606Z,1.31
2018-12-17T05:02:19.396Z,1.34
2018-12-17T05:07:22.540Z,1.39
2018-12-17T05:12:25.514Z,1.40
2018-12-17T05:17:28.277Z,1.42
2018-12-17T05:22:31.081Z,1.41
2018-12-17T05:27:33.952Z,1.31
2018-12-17T05:32:36.801Z,1.32
2018-12-17T05:37:39.571Z,1.28
2018-12-17T05:42:42.506Z,1.30
2018-12-17T05:47:45.336Z,1.32
2018-12-17T05:52:48.151Z,1.38
2018-12-17T05:57:50.759Z,1.43
2018-12-17T06:02:53.589Z,1.41
2018-12-17T06:07:56.329Z,1.40
2018-12-17T06:12:59.068Z,1.38
2018-12-17T06:18:02.054Z,1.33
2018-12-17T06:23:05.010Z,1.25
2018-12-17T06:28:08.106Z,1.25
2018-12-17T06:33:15.637Z,1.28
2018-12-17T06:38:16.888Z,1.31
2018-12-17T06:43:20.063Z,1.35
2018-12-17T06:48:22.963Z,1.40
2018-12-17T06:53:25.805Z,1.39
2018-12-17T06:58:29.397Z,1.32
2018-12-17T07:03:32.251Z,1.30
2018-12-17T07:08:35.078Z,1.29
2018-12-17T07:13:37.752Z,1.28
2018-12-17T07:18:40.465Z,1.24
2018-12-17T07:23:43.240Z,1.25
2018-12-17T07:28:45.984Z,1.22
2018-12-17T07:33:48.879Z,1.21
2018-12-17T07:38:52.020Z,1.25
2018-12-17T07:43:55.145Z,1.23
2018-12-17T07:48:58.133Z,1.25
2018-12-17T07:54:01.014Z,1.36
2018-12-17T07:59:03.893Z,1.47
2018-12-17T08:04:06.741Z,1.50
2018-12-17T08:09:09.609Z,1.52
2018-12-17T08:14:12.509Z,1.47
2018-12-17T08:19:15.216Z,1.42
2018-12-17T08:24:18.119Z,1.38
2018-12-17T08:29:20.913Z,1.46
2018-12-17T08:34:23.819Z,1.48
2018-12-17T08:39:26.650Z,1.53
2018-12-17T08:44:29.545Z,1.59
2018-12-17T08:49:32.597Z,1.62
2018-12-17T08:54:35.350Z,1.79
2018-12-17T08:59:38.002Z,1.84
2018-12-17T09:04:41.098Z,1.89
2018-12-17T09:09:44.071Z,1.95
2018-12-17T09:14:46.935Z,2.04
2018-12-17T09:19:49.726Z,2.07
2018-12-17T09:24:52.742Z,2.08
2018-12-17T09:29:55.648Z,2.06
2018-12-17T09:34:58.425Z,2.07
2018-12-17T09:40:01.554Z,2.16
2018-12-17T09:45:07.220Z,2.28
2018-12-17T09:50:10.079Z,2.44
2018-12-17T09:55:12.936Z,2.58
2018-12-17T10:00:15.829Z,2.60
2018-12-17T10:05:18.781Z,2.61
2018-12-17T10:10:21.836Z,2.68
2018-12-17T10:15:25.003Z,2.77
2018-12-17T10:20:27.881Z,2.84
2018-12-17T10:25:30.773Z,2.93
2018-12-17T10:30:33.575Z,3.04
2018-12-17T10:35:36.527Z,3.11
2018-12-17T10:40:39.573Z,3.21
2018-12-17T10:45:42.574Z,3.23
2018-12-17T10:50:45.690Z,3.17
2018-12-17T10:55:48.392Z,3.15
2018-12-17T11:00:57.127Z,3.12
2018-12-17T11:06:04.170Z,3.22
2018-12-17T11:11:07.165Z,3.17
2018-12-17T11:16:10.290Z,3.14
2018-12-17T11:21:13.004Z,3.13
2018-12-17T11:26:15.667Z,3.18
2018-12-17T11:31:18.523Z,3.26
2018-12-17T11:36:21.545Z,3.34
2018-12-17T11:41:24.308Z,3.42
2018-12-17T11:46:27.226Z,3.56
2018-12-17T11:51:30.194Z,3.62
2018-12-17T12:02:14.570Z,3.89
2018-12-17T12:07:17.402Z,3.98
2018-12-17T12:12:20.361Z,4.11
2018-12-17T12:17:23.341Z,4.24
2018-12-17T12:22:26.049Z,4.15
2018-12-17T12:27:29.455Z,4.01
2018-12-17T12:32:32.415Z,3.92
2018-12-17T12:37:35.532Z,3.94
2018-12-17T12:42:38.465Z,3.91
2018-12-17T12:47:41.401Z,3.98
2018-12-17T12:52:44.532Z,4.04
2018-12-17T12:57:47.434Z,4.04
2018-12-17T13:02:50.310Z,4.05
2018-12-17T13:07:53.106Z,4.03
2018-12-17T13:12:55.937Z,4.05
2018-12-17T13:17:59.538Z,4.04
2018-12-17T13:23:02.395Z,4.08
2018-12-17T13:28:05.404Z,4.05
2018-12-17T13:33:08.268Z,4.02
2018-12-17T13:38:11.316Z,4.04
2018-12-17T13:43:14.197Z,3.95
2018-12-17T13:53:31.708Z,3.97
2018-12-17T13:58:35.352Z,3.98
2018-12-17T14:03:38.225Z,3.93
2018-12-17T14:08:41.182Z,3.88
2018-12-17T14:13:44.194Z,3.91
2018-12-17T14:18:52.990Z,3.89
2018-12-17T14:23:55.847Z,3.88
2018-12-17T14:28:58.586Z,3.90
2018-12-17T14:34:01.411Z,3.89
2018-12-17T14:39:06.956Z,3.88
2018-12-17T14:44:17.566Z,3.82
2018-12-17T14:49:20.396Z,3.75
2018-12-17T14:54:23.362Z,3.68
2018-12-17T14:59:26.240Z,3.72
2018-12-17T15:04:29.302Z,3.71
2018-12-17T15:09:31.970Z,3.77
2018-12-17T15:14:34.584Z,3.74
2018-12-17T15:19:37.538Z,3.75
2018-12-17T15:24:40.699Z,3.76
2018-12-17T15:29:43.557Z,3.75
2018-12-17T15:34:46.251Z,3.77
2018-12-17T15:39:49.131Z,3.76
2018-12-17T15:44:55.482Z,3.71
2018-12-17T15:49:58.058Z,3.72
2018-12-17T15:55:02.488Z,3.71
2018-12-17T16:00:10.162Z,3.72
2018-12-17T16:05:13.025Z,3.66
2018-12-17T16:10:15.788Z,3.67
2018-12-17T16:15:18.649Z,3.70
2018-12-17T16:20:21.661Z,3.66
2018-12-17T16:25:24.846Z,3.59
2018-12-17T16:30:27.678Z,3.51
2018-12-17T16:35:30.517Z,3.43
2018-12-17T16:40:33.860Z,3.39
2018-12-17T16:45:37.029Z,3.41
2018-12-17T16:50:40.290Z,3.37
2018-12-17T16:55:44.505Z,3.41
2018-12-17T17:00:47.417Z,3.44
2018-12-17T17:05:50.393Z,3.48
2018-12-17T17:10:53.472Z,3.45
2018-12-17T17:15:56.661Z,3.45
2018-12-17T17:20:59.494Z,3.54
2018-12-17T17:26:02.589Z,3.58
2018-12-17T17:31:05.560Z,3.66
2018-12-17T17:36:08.477Z,3.75
2018-12-17T17:41:11.405Z,3.82
2018-12-17T17:46:14.154Z,3.86
2018-12-17T17:51:17.288Z,3.89
2018-12-17T17:56:20.201Z,3.95
2018-12-17T18:01:23.073Z,3.96
2018-12-17T18:06:25.923Z,3.98
2018-12-17T18:11:28.824Z,4.00
2018-12-17T18:16:31.870Z,3.99
2018-12-17T18:21:34.775Z,4.04
2018-12-17T18:26:37.619Z,4.07
2018-12-17T18:31:40.496Z,4.09
2018-12-17T18:36:43.682Z,4.12
2018-12-17T18:41:46.589Z,4.15
2018-12-17T18:46:52.513Z,4.19
2018-12-17T18:51:55.512Z,4.21
2018-12-17T18:57:01.470Z,4.21
2018-12-17T19:02:04.543Z,4.23
2018-12-17T19:07:07.493Z,4.24
2018-12-17T19:12:10.401Z,4.25
2018-12-17T19:17:13.516Z,4.25
2018-12-17T19:22:16.381Z,4.23
2018-12-17T19:27:19.525Z,4.21
2018-12-17T19:32:22.478Z,4.19
2018-12-17T19:37:25.410Z,4.19
2018-12-17T19:42:28.311Z,4.18
2018-12-17T19:47:31.197Z,4.18
2018-12-17T19:52:34.152Z,4.16
2018-12-17T19:57:37.116Z,4.16
2018-12-17T20:02:46.851Z,4.20
2018-12-17T20:07:44.938Z,4.20
2018-12-17T20:12:47.671Z,4.20
2018-12-17T20:17:50.518Z,4.20
2018-12-17T20:22:53.249Z,4.19
2018-12-17T20:27:55.914Z,4.17
2018-12-17T20:38:11.318Z,4.16
2018-12-17T20:43:14.089Z,4.17
2018-12-17T20:48:17.020Z,4.20
2018-12-17T20:53:20.209Z,4.18
2018-12-17T20:58:23.121Z,4.17
2018-12-17T21:03:26.014Z,4.16
2018-12-17T21:08:28.654Z,4.14
2018-12-17T21:13:31.545Z,4.12
2018-12-17T21:18:34.386Z,4.12
2018-12-17T21:23:37.580Z,4.08
2018-12-17T21:28:40.310Z,4.04
2018-12-17T21:33:43.023Z,4.04
2018-12-17T21:38:45.725Z,3.98
2018-12-17T21:43:48.719Z,3.97
2018-12-17T21:48:51.669Z,3.97
2018-12-17T21:53:54.438Z,4.03
2018-12-17T21:58:57.550Z,4.05
2018-12-17T22:04:00.376Z,4.08
2018-12-17T22:09:05.828Z,4.10
2018-12-17T22:14:10.676Z,4.08
2018-12-17T22:19:14.837Z,4.08
2018-12-17T22:24:17.846Z,4.08
2018-12-17T22:29:21.442Z,4.08
2018-12-17T22:34:25.334Z,4.04
2018-12-17T22:39:28.126Z,4.05
2018-12-17T22:44:31.183Z,4.04
2018-12-17T22:49:34.238Z,4.05
2018-12-17T22:54:37.094Z,4.03
2018-12-17T22:59:39.905Z,4.02
2018-12-17T23:04:42.765Z,4.03
2018-12-17T23:10:03.168Z,4.03
2018-12-17T23:15:23.541Z,4.03
2018-12-17T23:20:26.471Z,4.06
2018-12-17T23:25:31.503Z,4.07
2018-12-17T23:30:35.863Z,4.04
2018-12-17T23:35:38.687Z,3.96
2018-12-17T23:40:41.298Z,3.88
2018-12-17T23:45:51.171Z,3.83
2018-12-17T23:50:54.274Z,3.79
2018-12-17T23:55:57.127Z,3.77
